LFBT/LDE METAR and TAF weather

Enter ICAO airport designator
Station Type Date Time Source
LFBT METAR 2019/04/23 04:00 UTC NOAA

LFBT 230400Z AUTO VRB01KT CAVOK 08/07 Q0995 NOSIG


Station Type Date Time Source
LFBT Decoded METAR 2019/04/23 04:00 UTC NOAA

Tarbes Ossun Lourdes, France (LFBT) 43-11N 000-00W 363M
Apr 23, 2019 - 12:00 AM EDT / 2019.04.23 0400 UTC
Wind: Variable at 1 MPH (1 KT):0
Visibility: greater than 7 mile(s):0
Temperature: 46 F (8 C)
Dew Point: 44 F (7 C)
Relative Humidity: 93%
Pressure (altimeter): 29.38 in. Hg (0995 hPa)
ob: LFBT 230400Z AUTO VRB01KT CAVOK 08/07 Q0995 NOSIG
cycle: 4

Station Type Date Time Source
LFBT TAF 2019/04/22 23:09 UTC NOAA

TAF
AMD TAF
AMD LFBT 222307Z 2223/2318 VRB02KT 9999 BKN095
BECMG 2310/2312 BKN060
TEMPO 2312/2318 4000 SHRA BKN060TCU PROB40
TEMPO 2312/2317 27015G25KT TSRA BKN060CB

Example: see airport list